createdAt,value
2023-01-28T00:01:07.754Z,21.4
2023-01-28T00:02:24.063Z,19.1
2023-01-28T00:03:40.356Z,19.1
2023-01-28T00:04:56.636Z,18.6
2023-01-28T00:06:12.933Z,17.4
2023-01-28T00:07:29.294Z,16
2023-01-28T00:08:45.652Z,17.4
2023-01-28T00:10:01.056Z,17
2023-01-28T00:12:33.777Z,14.4
2023-01-28T00:15:06.487Z,15.4
2023-01-28T00:16:22.850Z,14.1
2023-01-28T00:17:39.208Z,15.6
2023-01-28T00:18:55.544Z,13.5
2023-01-28T00:20:11.910Z,14
2023-01-28T00:21:28.271Z,13.8
2023-01-28T00:24:00.972Z,14.9
2023-01-28T00:25:17.338Z,14.7
2023-01-28T00:26:32.758Z,16.5
2023-01-28T00:27:49.113Z,14.6
2023-01-28T00:30:21.817Z,13.6
2023-01-28T00:31:38.174Z,13.2
2023-01-28T00:32:54.535Z,13.1
2023-01-28T00:35:27.256Z,13.8
2023-01-28T00:36:43.610Z,11.8
2023-01-28T00:37:59.960Z,14
2023-01-28T00:39:16.315Z,13.8
2023-01-28T00:41:49.032Z,11.6
2023-01-28T00:43:05.381Z,13.5
2023-01-28T00:44:21.749Z,13.5
2023-01-28T00:45:38.099Z,13
2023-01-28T00:46:53.511Z,12.2
2023-01-28T00:48:09.858Z,14.8
2023-01-28T00:49:26.211Z,12
2023-01-28T00:50:42.574Z,12.3
2023-01-28T00:53:15.298Z,13.5
2023-01-28T00:54:31.648Z,10.8
2023-01-28T00:55:47.996Z,13.7
2023-01-28T00:57:04.347Z,10.7
2023-01-28T00:58:20.709Z,12.1
2023-01-28T00:59:37.073Z,12.7
2023-01-28T01:00:53.422Z,11.2
2023-01-28T01:02:09.793Z,13.7
2023-01-28T01:03:26.149Z,11.6
2023-01-28T01:04:42.494Z,12.7
2023-01-28T01:05:57.902Z,11.8
2023-01-28T01:07:14.262Z,13.1
2023-01-28T01:08:30.624Z,12
2023-01-28T01:09:46.978Z,12.7
2023-01-28T01:11:03.323Z,13.2
2023-01-28T01:12:18.746Z,11.4
2023-01-28T01:13:35.105Z,11
2023-01-28T01:16:06.874Z,13.4
2023-01-28T01:17:23.221Z,14.3
2023-01-28T01:18:39.583Z,14.2
2023-01-28T01:21:12.286Z,12.3
2023-01-28T01:22:28.657Z,13.3
2023-01-28T01:23:45.001Z,11.7
2023-01-28T01:25:01.375Z,12.7
2023-01-28T01:26:17.716Z,12.1
2023-01-28T01:27:34.086Z,12.2
2023-01-28T01:28:50.428Z,14.8
2023-01-28T01:30:06.798Z,13.4
2023-01-28T01:32:39.508Z,13.1
2023-01-28T01:33:55.872Z,11.2
2023-01-28T01:35:12.219Z,12
2023-01-28T01:36:27.635Z,13.1
2023-01-28T01:37:44.010Z,14.3
2023-01-28T01:39:00.366Z,13.2
2023-01-28T01:40:16.721Z,11.3
2023-01-28T01:41:33.074Z,13.3
2023-01-28T01:44:04.839Z,11.6
2023-01-28T01:45:21.194Z,13.4
2023-01-28T01:46:37.554Z,12.2
2023-01-28T01:50:26.609Z,11.5
2023-01-28T01:51:42.976Z,13.1
2023-01-28T01:52:59.319Z,12.3
2023-01-28T01:55:32.046Z,13.2
2023-01-28T01:56:48.392Z,13
2023-01-28T01:58:04.749Z,13
2023-01-28T01:59:20.162Z,13.9
2023-01-28T02:00:36.507Z,13
2023-01-28T02:01:52.861Z,12.3
2023-01-28T02:03:09.234Z,12.6
2023-01-28T02:04:25.582Z,12.5
2023-01-28T02:06:58.306Z,12.6
2023-01-28T02:09:31.011Z,12.1
2023-01-28T02:10:47.368Z,12.8
2023-01-28T02:13:20.073Z,11.3
2023-01-28T02:14:36.439Z,11.7
2023-01-28T02:15:52.790Z,14.1
2023-01-28T02:18:25.515Z,13.2
2023-01-28T02:19:41.860Z,13.5
2023-01-28T02:20:57.262Z,13
2023-01-28T02:22:13.615Z,11.4
2023-01-28T02:26:02.692Z,12.4
2023-01-28T02:27:19.042Z,11.6
2023-01-28T02:28:35.418Z,13.9
2023-01-28T02:29:51.766Z,12
2023-01-28T02:31:08.126Z,12.5
2023-01-28T02:32:24.468Z,11
2023-01-28T02:33:40.837Z,10.8
2023-01-28T02:36:13.539Z,10.3
2023-01-28T02:37:29.914Z,12.2
2023-01-28T02:38:45.313Z,13
2023-01-28T02:40:01.666Z,13
2023-01-28T02:41:18.018Z,11.6
2023-01-28T02:42:34.372Z,11.6
2023-01-28T02:43:50.743Z,11.4
2023-01-28T02:45:07.101Z,12.5
2023-01-28T02:46:23.454Z,10.7
2023-01-28T02:47:39.808Z,10.7
2023-01-28T02:48:56.161Z,13.2
2023-01-28T02:50:12.000Z,11.9
2023-01-28T02:51:28.867Z,11.9
2023-01-28T02:52:45.231Z,12.8
2023-01-28T02:54:01.580Z,12.9
2023-01-28T02:55:17.011Z,11.2
2023-01-28T02:56:32.410Z,11.4
2023-01-28T02:57:48.782Z,12.8
2023-01-28T02:59:05.123Z,12.6
2023-01-28T03:00:21.493Z,12.5
2023-01-28T03:01:37.851Z,10.8
2023-01-28T03:04:10.558Z,12.3
2023-01-28T03:05:26.912Z,12.1
2023-01-28T03:06:43.279Z,12.4
2023-01-28T03:07:59.623Z,10.9
2023-01-28T03:09:15.985Z,10
2023-01-28T03:10:32.334Z,11.9
2023-01-28T03:11:48.692Z,11.7
2023-01-28T03:13:05.062Z,11.5
2023-01-28T03:15:37.760Z,12.6
2023-01-28T03:16:54.126Z,14.3
2023-01-28T03:18:10.486Z,14.3
2023-01-28T03:19:25.914Z,11.4
2023-01-28T03:20:41.317Z,12.2
2023-01-28T03:23:14.021Z,11.2
2023-01-28T03:24:30.387Z,11.6
2023-01-28T03:27:03.101Z,11.6
2023-01-28T03:28:19.458Z,10.8
2023-01-28T03:29:35.806Z,11.5
2023-01-28T03:30:52.174Z,9.7
2023-01-28T03:32:08.512Z,9.9
2023-01-28T03:33:24.882Z,12
2023-01-28T03:34:41.234Z,12.4
2023-01-28T03:35:57.601Z,10.5
2023-01-28T03:37:13.957Z,11.6
2023-01-28T03:38:30.305Z,13.7
2023-01-28T03:39:45.713Z,11.9
2023-01-28T03:41:02.076Z,14.2
2023-01-28T03:42:18.416Z,10
2023-01-28T03:43:34.782Z,10.1
2023-01-28T03:44:51.127Z,9.8
2023-01-28T03:46:07.490Z,12.2
2023-01-28T03:47:23.855Z,10.6
2023-01-28T03:49:56.565Z,10.5
2023-01-28T03:51:12.910Z,11.2
2023-01-28T03:52:29.270Z,11.2
2023-01-28T03:53:44.705Z,12.1
2023-01-28T03:55:01.063Z,9.5
2023-01-28T03:56:17.414Z,11.7
2023-01-28T03:57:32.824Z,12.1
2023-01-28T03:58:49.179Z,11.5
2023-01-28T04:00:05.539Z,11.6
2023-01-28T04:01:21.888Z,10.5
2023-01-28T04:02:38.243Z,9.6
2023-01-28T04:03:54.606Z,9.1
2023-01-28T04:05:10.965Z,10.5
2023-01-28T04:06:27.318Z,11.8
2023-01-28T04:07:43.675Z,11.9
2023-01-28T04:08:59.099Z,12.3
2023-01-28T04:10:14.496Z,10
2023-01-28T04:11:30.847Z,11
2023-01-28T04:12:47.217Z,11.2
2023-01-28T04:14:03.575Z,12
2023-01-28T04:15:19.919Z,9
2023-01-28T04:16:36.289Z,10.4
2023-01-28T04:19:09.006Z,9.8
2023-01-28T04:20:25.356Z,10.4
2023-01-28T04:21:41.720Z,9.8
2023-01-28T04:22:58.074Z,10.4
2023-01-28T04:24:14.414Z,11.3
2023-01-28T04:25:30.785Z,9.4
2023-01-28T04:26:46.187Z,9
2023-01-28T04:28:02.536Z,11.4
2023-01-28T04:29:18.900Z,10.3
2023-01-28T04:30:35.260Z,10.2
2023-01-28T04:31:51.607Z,10.5
2023-01-28T04:33:07.963Z,10
2023-01-28T04:35:40.681Z,10.7
2023-01-28T04:36:57.036Z,11.5
2023-01-28T04:38:13.390Z,11.1
2023-01-28T04:39:29.745Z,12.1
2023-01-28T04:40:46.117Z,11.4
2023-01-28T04:42:02.474Z,10.9
2023-01-28T04:43:17.874Z,9.5
2023-01-28T04:44:34.232Z,12.7
2023-01-28T04:45:50.595Z,10.9
2023-01-28T04:47:06.945Z,10.6
2023-01-28T04:48:23.295Z,12.4
2023-01-28T04:49:39.669Z,10.3
2023-01-28T04:50:56.022Z,10.4
2023-01-28T04:52:12.366Z,9.4
2023-01-28T04:53:28.741Z,9.6
2023-01-28T04:54:45.090Z,9.6
2023-01-28T04:56:01.438Z,10.8
2023-01-28T04:58:34.147Z,9.8
2023-01-28T04:59:50.519Z,11
2023-01-28T05:01:06.874Z,10.9
2023-01-28T05:02:22.267Z,10.1
2023-01-28T05:03:38.639Z,8.8
2023-01-28T05:04:54.995Z,8.4
2023-01-28T05:06:11.345Z,11.8
2023-01-28T05:07:27.712Z,10.3
2023-01-28T05:08:44.048Z,8.9
2023-01-28T05:10:00.415Z,8.9
2023-01-28T05:11:16.773Z,9.5
2023-01-28T05:12:33.121Z,9.6
2023-01-28T05:13:49.484Z,9.9
2023-01-28T05:15:05.845Z,10.1
2023-01-28T05:16:22.198Z,9
2023-01-28T05:17:38.555Z,9.5
2023-01-28T05:18:54.914Z,10.7
2023-01-28T05:20:10.307Z,10.5
2023-01-28T05:21:26.671Z,8.5
2023-01-28T05:22:43.033Z,9.4
2023-01-28T05:23:59.387Z,9.7
2023-01-28T05:25:15.732Z,10
2023-01-28T05:27:48.446Z,9.2
2023-01-28T05:29:04.820Z,9.8
2023-01-28T05:30:21.176Z,8.6
2023-01-28T05:32:53.879Z,9.6
2023-01-28T05:34:10.247Z,9.5
2023-01-28T05:35:26.594Z,11.2
2023-01-28T05:36:42.006Z,10.5
2023-01-28T05:37:58.352Z,9.4
2023-01-28T05:39:14.713Z,10
2023-01-28T05:40:31.061Z,10.7
2023-01-28T05:41:47.433Z,10.7
2023-01-28T05:43:03.777Z,10.4
2023-01-28T05:44:20.135Z,8.9
2023-01-28T05:45:36.489Z,10.3
2023-01-28T05:46:52.854Z,10.3
2023-01-28T05:48:09.208Z,11
2023-01-28T05:50:41.912Z,9.9
2023-01-28T05:51:57.350Z,11.1
2023-01-28T05:53:12.755Z,12
2023-01-28T05:55:45.474Z,12
2023-01-28T05:57:01.824Z,10.6
2023-01-28T05:58:18.179Z,10
2023-01-28T05:59:34.539Z,10.4
2023-01-28T06:02:07.260Z,10.2
2023-01-28T06:03:23.615Z,10.8
2023-01-28T06:04:39.964Z,9.9
2023-01-28T06:05:56.330Z,10.2
2023-01-28T06:07:12.676Z,10.6
2023-01-28T06:08:29.036Z,10.2
2023-01-28T06:09:44.462Z,9.7
2023-01-28T06:10:59.853Z,10
2023-01-28T06:13:32.578Z,10.2
2023-01-28T06:14:48.935Z,10.7
2023-01-28T06:16:05.297Z,10.8
2023-01-28T06:17:21.640Z,11.6
2023-01-28T06:18:38.002Z,10.3
2023-01-28T06:19:54.297Z,10.8
2023-01-28T06:21:10.656Z,10.7
2023-01-28T06:22:26.986Z,11.2
2023-01-28T06:23:43.286Z,9.3
2023-01-28T06:24:59.589Z,11.6
2023-01-28T06:26:15.940Z,8.9
2023-01-28T06:27:32.297Z,11
2023-01-28T06:28:47.656Z,9.7
2023-01-28T06:30:03.967Z,9.4
2023-01-28T06:31:20.000Z,10.6
2023-01-28T06:32:36.563Z,9.5
2023-01-28T06:33:52.864Z,9.5
2023-01-28T06:35:09.170Z,9.5
2023-01-28T06:36:25.478Z,10.2
2023-01-28T06:37:40.845Z,9.4
2023-01-28T06:38:56.204Z,8.7
2023-01-28T06:40:12.500Z,9.2
2023-01-28T06:41:28.798Z,8.1
2023-01-28T06:42:45.112Z,11.3
2023-01-28T06:44:01.401Z,9.7
2023-01-28T06:45:17.706Z,10
2023-01-28T06:47:50.291Z,8.6
2023-01-28T06:49:06.622Z,8.5
2023-01-28T06:50:22.909Z,8.9
2023-01-28T06:51:39.215Z,9.8
2023-01-28T06:52:55.518Z,9.3
2023-01-28T06:54:11.803Z,9.8
2023-01-28T06:55:27.172Z,9.5
2023-01-28T06:56:43.485Z,9
2023-01-28T06:59:16.061Z,9.8
2023-01-28T07:00:31.458Z,9.2
2023-01-28T07:01:46.815Z,10.3
2023-01-28T07:03:03.120Z,8.3
2023-01-28T07:04:19.413Z,9.4
2023-01-28T07:05:35.717Z,8.7
2023-01-28T07:06:52.010Z,9.1
2023-01-28T07:08:08.325Z,11
2023-01-28T07:09:24.624Z,9.6
2023-01-28T07:10:40.933Z,11
2023-01-28T07:11:57.231Z,9.5
2023-01-28T07:13:13.539Z,8.3
2023-01-28T07:14:28.910Z,9.7
2023-01-28T07:15:44.247Z,8.5
2023-01-28T07:17:00.536Z,9.3
2023-01-28T07:18:16.868Z,9.5
2023-01-28T07:19:33.162Z,9
2023-01-28T07:20:49.455Z,9.5
2023-01-28T07:22:05.768Z,10.1
2023-01-28T07:23:22.082Z,10.9
2023-01-28T07:24:38.372Z,11.5
2023-01-28T07:25:54.679Z,9.8
2023-01-28T07:27:10.979Z,8.5
2023-01-28T07:28:26.342Z,8.8
2023-01-28T07:29:41.700Z,8.1
2023-01-28T07:30:58.002Z,8.5
2023-01-28T07:32:14.307Z,10.3
2023-01-28T07:34:46.900Z,10.4
2023-01-28T07:36:03.209Z,9
2023-01-28T07:37:19.526Z,9
2023-01-28T07:38:35.824Z,8.5
2023-01-28T07:39:52.130Z,10.1
2023-01-28T07:41:08.416Z,8.7
2023-01-28T07:42:24.720Z,9.3
2023-01-28T07:44:57.307Z,8.9
2023-01-28T07:46:12.677Z,9.8
2023-01-28T07:47:28.980Z,8.9
2023-01-28T07:48:45.287Z,9.5
2023-01-28T07:50:01.598Z,9.9
2023-01-28T07:51:17.869Z,8.6
2023-01-28T07:52:34.198Z,10.7
2023-01-28T07:53:50.492Z,7.3
2023-01-28T07:56:23.094Z,9.6
2023-01-28T07:57:39.407Z,9.2
2023-01-28T07:58:55.699Z,7.9
2023-01-28T08:00:12.019Z,8.3
2023-01-28T08:01:28.308Z,7.8
2023-01-28T08:02:44.594Z,8.5
2023-01-28T08:03:59.963Z,7.2
2023-01-28T08:05:16.264Z,7.4
2023-01-28T08:07:48.870Z,8.9
2023-01-28T08:09:05.179Z,8.1
2023-01-28T08:10:21.482Z,8.4
2023-01-28T08:11:37.775Z,8.9
2023-01-28T08:12:54.078Z,9.6
2023-01-28T08:14:10.386Z,8.3
2023-01-28T08:15:26.688Z,8.1
2023-01-28T08:16:42.993Z,8.3
2023-01-28T08:19:15.603Z,8.6
2023-01-28T08:20:30.979Z,8.6
2023-01-28T08:21:46.311Z,8.3
2023-01-28T08:23:02.623Z,8.9
2023-01-28T08:24:18.925Z,8.9
2023-01-28T08:25:35.209Z,8.7
2023-01-28T08:26:51.542Z,8.5
2023-01-28T08:28:07.828Z,8.6
2023-01-28T08:29:24.146Z,7.7
2023-01-28T08:30:40.447Z,7.7
2023-01-28T08:31:56.738Z,6.7
2023-01-28T08:33:13.043Z,7.2
2023-01-28T08:35:44.716Z,8.7
2023-01-28T08:37:00.049Z,8.2
2023-01-28T08:38:16.380Z,8.5
2023-01-28T08:39:32.684Z,6.7
2023-01-28T08:40:48.973Z,7.4
2023-01-28T08:42:05.287Z,7.8
2023-01-28T08:43:21.585Z,8.3
2023-01-28T08:44:37.888Z,7.1
2023-01-28T08:45:54.190Z,7.1
2023-01-28T08:47:10.484Z,7.1
2023-01-28T08:48:25.805Z,6.9
2023-01-28T08:49:41.067Z,7.5
2023-01-28T08:50:57.296Z,6.7
2023-01-28T08:52:13.535Z,6.8
2023-01-28T08:53:29.772Z,8
2023-01-28T08:54:46.012Z,8.4
2023-01-28T08:56:02.252Z,8.2
2023-01-28T08:57:18.508Z,8
2023-01-28T08:58:33.757Z,7.2
2023-01-28T08:59:49.996Z,9
2023-01-28T09:01:06.246Z,6.8
2023-01-28T09:02:22.479Z,8
2023-01-28T09:03:38.725Z,7.9
2023-01-28T09:04:54.968Z,7.1
2023-01-28T09:06:11.202Z,8.1
2023-01-28T09:07:27.446Z,8.5
2023-01-28T09:08:43.696Z,7.1
2023-01-28T09:11:16.177Z,7
2023-01-28T09:12:32.425Z,7.6
2023-01-28T09:13:48.659Z,7.2
2023-01-28T09:16:20.159Z,10
2023-01-28T09:18:52.640Z,8.2
2023-01-28T09:20:07.900Z,8.5
2023-01-28T09:21:23.145Z,8.1
2023-01-28T09:22:39.392Z,7
2023-01-28T09:23:55.633Z,6.9
2023-01-28T09:25:11.868Z,7.4
2023-01-28T09:26:28.131Z,7.6
2023-01-28T09:27:44.355Z,8.6
2023-01-28T09:29:00.608Z,7.2
2023-01-28T09:30:16.843Z,7.5
2023-01-28T09:31:33.089Z,7.7
2023-01-28T09:32:49.318Z,9.3
2023-01-28T09:34:04.591Z,7.7
2023-01-28T09:35:19.840Z,8.2
2023-01-28T09:36:36.076Z,6.8
2023-01-28T09:37:52.316Z,7.3
2023-01-28T09:39:08.560Z,7.7
2023-01-28T09:40:24.810Z,7.5
2023-01-28T09:41:41.051Z,7.7
2023-01-28T09:42:57.294Z,6.4
2023-01-28T09:44:13.540Z,7.6
2023-01-28T09:45:29.774Z,6.6
2023-01-28T09:46:46.015Z,6.5
2023-01-28T09:48:02.258Z,6.3
2023-01-28T09:49:18.484Z,6.7
2023-01-28T09:50:34.740Z,7.1
2023-01-28T09:51:49.997Z,7
2023-01-28T09:53:06.243Z,7
2023-01-28T09:54:22.475Z,7.4
2023-01-28T09:55:38.722Z,6.5
2023-01-28T09:56:54.945Z,6.5
2023-01-28T09:58:11.192Z,6.2
2023-01-28T09:59:27.000Z,6.9
2023-01-28T10:00:43.688Z,6.4
2023-01-28T10:01:59.928Z,5.3
2023-01-28T10:03:16.169Z,6.2
2023-01-28T10:04:32.410Z,8.2
2023-01-28T10:05:48.643Z,8
2023-01-28T10:07:04.877Z,8.2
2023-01-28T10:09:36.384Z,7.8
2023-01-28T10:10:52.627Z,8.1
2023-01-28T10:12:08.866Z,7
2023-01-28T10:13:25.095Z,7
2023-01-28T10:14:41.350Z,6.5
2023-01-28T10:17:13.822Z,6.2
2023-01-28T10:18:30.060Z,6.6
2023-01-28T10:19:46.301Z,6.9
2023-01-28T10:21:02.550Z,6.6
2023-01-28T10:22:18.785Z,6.5
2023-01-28T10:23:35.023Z,6
2023-01-28T10:24:50.283Z,8
2023-01-28T10:26:06.535Z,7.1
2023-01-28T10:27:22.765Z,7.1
2023-01-28T10:28:39.009Z,7.8
2023-01-28T10:29:55.253Z,7.3
2023-01-28T10:31:11.492Z,7.4
2023-01-28T10:32:27.735Z,7
2023-01-28T10:33:43.976Z,7.9
2023-01-28T10:35:00.217Z,7.5
2023-01-28T10:36:16.462Z,8.2
2023-01-28T10:37:32.687Z,7.2
2023-01-28T10:38:48.945Z,7.6
2023-01-28T10:40:05.175Z,7.5
2023-01-28T10:41:20.442Z,7.5
2023-01-28T10:42:36.672Z,7.3
2023-01-28T10:43:52.911Z,7.3
2023-01-28T10:45:09.148Z,6.6
2023-01-28T10:47:41.633Z,6.3
2023-01-28T10:48:57.887Z,6.1
2023-01-28T10:50:14.118Z,7.3
2023-01-28T10:51:30.360Z,7.1
2023-01-28T10:52:46.595Z,6.5
2023-01-28T10:54:02.840Z,7.4
2023-01-28T10:55:19.084Z,7
2023-01-28T10:56:35.317Z,8.2
2023-01-28T10:57:50.579Z,6.5
2023-01-28T11:00:23.056Z,6.7
2023-01-28T11:01:39.315Z,7.4
2023-01-28T11:02:55.553Z,7.3
2023-01-28T11:04:11.789Z,6.7
2023-01-28T11:05:28.018Z,7
2023-01-28T11:06:44.275Z,6.7
2023-01-28T11:08:00.512Z,7.5
2023-01-28T11:09:16.753Z,6.4
2023-01-28T11:10:32.989Z,8.3
2023-01-28T11:11:49.226Z,7.6
2023-01-28T11:13:05.476Z,7.9
2023-01-28T11:14:20.720Z,7
2023-01-28T11:15:36.971Z,7.5
2023-01-28T11:16:53.203Z,7.3
2023-01-28T11:18:09.455Z,6.7
2023-01-28T11:19:25.684Z,7.3
2023-01-28T11:20:41.932Z,7
2023-01-28T11:21:58.180Z,8.4
2023-01-28T11:23:14.413Z,6.7
2023-01-28T11:24:30.645Z,7
2023-01-28T11:25:46.904Z,7
2023-01-28T11:28:19.372Z,8.1
2023-01-28T11:29:35.623Z,7
2023-01-28T11:30:50.884Z,6.8
2023-01-28T11:32:07.116Z,6.8
2023-01-28T11:33:23.367Z,7.1
2023-01-28T11:34:39.602Z,7.2
2023-01-28T11:35:55.835Z,8.4
2023-01-28T11:37:12.073Z,7.7
2023-01-28T11:38:28.324Z,6.7
2023-01-28T11:39:44.551Z,7.3
2023-01-28T11:41:00.795Z,7.7
2023-01-28T11:42:17.038Z,8
2023-01-28T11:43:33.289Z,8
2023-01-28T11:44:49.528Z,8.9
2023-01-28T11:46:05.769Z,8.4
2023-01-28T11:47:21.015Z,6.8
2023-01-28T11:48:37.269Z,11.1
2023-01-28T11:49:53.502Z,7
2023-01-28T11:51:09.753Z,7.5
2023-01-28T11:52:25.976Z,7.3
2023-01-28T11:53:42.215Z,6.8
2023-01-28T11:54:58.459Z,9.1
2023-01-28T11:56:14.712Z,9.3
2023-01-28T11:58:47.192Z,10.1
2023-01-28T12:00:03.421Z,9.6
2023-01-28T12:01:19.660Z,10.6
2023-01-28T12:03:52.153Z,9.4
2023-01-28T12:05:07.415Z,8.7
2023-01-28T12:07:39.885Z,10.1
2023-01-28T12:08:55.157Z,9.1
2023-01-28T12:10:10.410Z,8.4
2023-01-28T12:11:26.640Z,8.7
2023-01-28T12:12:42.886Z,8.9
2023-01-28T12:13:59.135Z,8.2
2023-01-28T12:15:15.380Z,8.3
2023-01-28T12:16:31.620Z,7.9
2023-01-28T12:17:47.853Z,8.2
2023-01-28T12:19:04.097Z,8
2023-01-28T12:20:20.329Z,8.1
2023-01-28T12:21:36.584Z,8.5
2023-01-28T12:22:51.832Z,9.7
2023-01-28T12:24:07.105Z,9.6
2023-01-28T12:25:23.331Z,9.8
2023-01-28T12:26:39.588Z,9.5
2023-01-28T12:27:55.811Z,8.8
2023-01-28T12:29:12.055Z,9.2
2023-01-28T12:30:28.301Z,10.1
2023-01-28T12:31:44.538Z,10.9
2023-01-28T12:33:00.779Z,11.9
2023-01-28T12:34:17.030Z,9.6
2023-01-28T12:35:33.254Z,9.4
2023-01-28T12:36:49.497Z,9
2023-01-28T12:38:05.752Z,10.8
2023-01-28T12:39:21.978Z,10
2023-01-28T12:40:37.250Z,8.5
2023-01-28T12:41:53.480Z,10.7
2023-01-28T12:43:09.725Z,8.9
2023-01-28T12:44:25.970Z,10.2
2023-01-28T12:45:42.207Z,9.8
2023-01-28T12:46:58.450Z,9.1
2023-01-28T12:48:14.690Z,8.6
2023-01-28T12:49:30.937Z,8.9
2023-01-28T12:50:47.163Z,8.9
2023-01-28T12:52:03.400Z,7.6
2023-01-28T12:53:19.650Z,7.8
2023-01-28T12:54:35.884Z,8
2023-01-28T12:55:52.137Z,9
2023-01-28T12:57:07.398Z,6.9
2023-01-28T12:58:23.635Z,8.5
2023-01-28T12:59:39.882Z,7.8
2023-01-28T13:00:56.107Z,8.5
2023-01-28T13:02:12.350Z,7.9
2023-01-28T13:03:28.589Z,8.3
2023-01-28T13:04:44.840Z,8.3
2023-01-28T13:06:01.066Z,7.4
2023-01-28T13:07:17.313Z,7.5
2023-01-28T13:08:33.564Z,7.8
2023-01-28T13:09:49.808Z,8.4
2023-01-28T13:11:06.036Z,8.7
2023-01-28T13:12:22.285Z,7.9
2023-01-28T13:13:37.548Z,8.1
2023-01-28T13:14:53.772Z,8.3
2023-01-28T13:16:10.018Z,9.5
2023-01-28T13:17:26.269Z,8.9
2023-01-28T13:18:42.506Z,9
2023-01-28T13:19:58.739Z,8.8
2023-01-28T13:21:14.993Z,8.9
2023-01-28T13:22:31.233Z,7.8
2023-01-28T13:23:47.462Z,8.2
2023-01-28T13:25:03.705Z,8.3
2023-01-28T13:26:19.947Z,8.9
2023-01-28T13:27:36.186Z,8.7
2023-01-28T13:28:52.436Z,8.7
2023-01-28T13:30:07.687Z,9.2
2023-01-28T13:31:23.924Z,8.9
2023-01-28T13:32:40.174Z,8.9
2023-01-28T13:35:12.655Z,9.1
2023-01-28T13:36:28.893Z,9.4
2023-01-28T13:37:45.135Z,9.3
2023-01-28T13:39:01.366Z,8.8
2023-01-28T13:40:17.616Z,9.6
2023-01-28T13:41:33.860Z,9
2023-01-28T13:42:50.092Z,10.4
2023-01-28T13:44:06.335Z,10.2
2023-01-28T13:45:22.575Z,10.3
2023-01-28T13:46:37.835Z,9.7
2023-01-28T13:47:54.067Z,10.1
2023-01-28T13:50:26.544Z,18.3
2023-01-28T13:51:42.777Z,16.5
2023-01-28T13:52:59.010Z,10.6
2023-01-28T13:54:15.261Z,9.4
2023-01-28T13:55:31.507Z,10.7
2023-01-28T13:56:47.733Z,11
2023-01-28T13:58:03.979Z,11.1
2023-01-28T13:59:20.233Z,10
2023-01-28T14:01:52.708Z,11.9
2023-01-28T14:03:07.965Z,11.3
2023-01-28T14:04:24.205Z,11.3
2023-01-28T14:05:40.441Z,11.4
2023-01-28T14:06:56.682Z,12.3
2023-01-28T14:08:12.930Z,11.1
2023-01-28T14:09:29.163Z,12.5
2023-01-28T14:10:45.408Z,13.1
2023-01-28T14:13:17.897Z,13.9
2023-01-28T14:14:33.144Z,13.3
2023-01-28T14:15:48.409Z,16.9
2023-01-28T14:17:04.651Z,18.7
2023-01-28T14:18:20.888Z,14.4
2023-01-28T14:19:37.122Z,11.7
2023-01-28T14:20:53.368Z,12.4
2023-01-28T14:22:09.606Z,12.9
2023-01-28T14:23:25.848Z,12.5
2023-01-28T14:24:42.096Z,12.2
2023-01-28T14:25:58.327Z,11.4
2023-01-28T14:27:14.578Z,12
2023-01-28T14:28:29.826Z,12.6
2023-01-28T14:29:45.091Z,14.1
2023-01-28T14:31:01.334Z,12.5
2023-01-28T14:32:17.580Z,12.7
2023-01-28T14:33:33.817Z,13.3
2023-01-28T14:34:50.055Z,13.8
2023-01-28T14:36:06.299Z,14
2023-01-28T14:37:22.548Z,14
2023-01-28T14:38:38.775Z,14.5
2023-01-28T14:39:55.025Z,14.9
2023-01-28T14:41:11.268Z,15.3
2023-01-28T14:42:27.511Z,14.5
2023-01-28T14:43:43.742Z,15
2023-01-28T14:44:59.988Z,12.7
2023-01-28T14:46:15.247Z,13.2
2023-01-28T14:47:31.484Z,16.5
2023-01-28T14:48:47.721Z,18.7
2023-01-28T14:50:03.967Z,13.5
2023-01-28T14:51:20.205Z,14.6
2023-01-28T14:52:36.447Z,12.5
2023-01-28T14:53:52.695Z,13.3
2023-01-28T14:55:08.918Z,12.8
2023-01-28T14:56:25.168Z,14.8
2023-01-28T14:57:41.406Z,15.2
2023-01-28T14:58:57.659Z,15.1
2023-01-28T15:00:13.898Z,14.2
2023-01-28T15:01:30.126Z,12.3
2023-01-28T15:02:45.391Z,15.3
2023-01-28T15:04:01.642Z,15.8
2023-01-28T15:05:17.873Z,15.2
2023-01-28T15:06:34.102Z,13.5
2023-01-28T15:07:50.358Z,13.7
2023-01-28T15:09:06.582Z,14.4
2023-01-28T15:10:22.829Z,14.6
2023-01-28T15:11:39.066Z,15.4
2023-01-28T15:14:11.557Z,14
2023-01-28T15:16:44.047Z,14.2
2023-01-28T15:18:00.276Z,15.6
2023-01-28T15:19:15.530Z,16.9
2023-01-28T15:20:31.768Z,24.1
2023-01-28T15:21:48.016Z,19.3
2023-01-28T15:23:04.253Z,18.6
2023-01-28T15:24:20.488Z,17.3
2023-01-28T15:25:36.740Z,18.3
2023-01-28T15:26:52.973Z,19.5
2023-01-28T15:28:09.229Z,16.6
2023-01-28T15:29:25.465Z,13.6
2023-01-28T15:30:41.697Z,15.9
2023-01-28T15:31:57.935Z,15.7
2023-01-28T15:33:14.179Z,14.7
2023-01-28T15:34:30.424Z,17.2
2023-01-28T15:37:01.921Z,17.1
2023-01-28T15:38:17.188Z,17
2023-01-28T15:39:32.432Z,18.1
2023-01-28T15:40:48.688Z,18.5
2023-01-28T15:42:04.930Z,17.6
2023-01-28T15:43:21.162Z,16.8
2023-01-28T15:44:37.419Z,17.4
2023-01-28T15:45:53.647Z,15.4
2023-01-28T15:47:09.882Z,15.3
2023-01-28T15:48:26.133Z,24.5
2023-01-28T15:49:42.371Z,28.5
2023-01-28T15:50:58.601Z,23.6
2023-01-28T15:52:13.867Z,15.5
2023-01-28T15:53:29.132Z,18.6
2023-01-28T15:54:45.362Z,18.3
2023-01-28T15:56:01.613Z,16.3
2023-01-28T15:57:17.863Z,15.1
2023-01-28T15:58:34.094Z,14
2023-01-28T15:59:50.328Z,12.3
2023-01-28T16:01:06.574Z,12.1
2023-01-28T16:02:22.810Z,11.6
2023-01-28T16:03:39.063Z,10.4
2023-01-28T16:04:55.291Z,11
2023-01-28T16:06:11.545Z,12
2023-01-28T16:07:27.787Z,11.4
2023-01-28T16:10:00.269Z,11.2
2023-01-28T16:11:15.525Z,11.1
2023-01-28T16:12:31.755Z,11.1
2023-01-28T16:13:48.013Z,11.5
2023-01-28T16:15:04.241Z,11.5
2023-01-28T16:16:20.491Z,11.8
2023-01-28T16:17:36.714Z,11.1
2023-01-28T16:18:52.964Z,12.4
2023-01-28T16:20:09.195Z,11.1
2023-01-28T16:21:25.452Z,14.5
2023-01-28T16:22:41.749Z,8.5
2023-01-28T16:23:58.042Z,8.7
2023-01-28T16:25:14.268Z,13.1
2023-01-28T16:26:30.516Z,15.2
2023-01-28T16:27:45.778Z,17.2
2023-01-28T16:30:18.357Z,17.3
2023-01-28T16:32:50.965Z,18.7
2023-01-28T16:34:06.271Z,21.4
2023-01-28T16:35:21.576Z,29.3
2023-01-28T16:36:37.873Z,19.2
2023-01-28T16:37:54.168Z,26.8
2023-01-28T16:40:26.762Z,19.9
2023-01-28T16:41:43.064Z,18.6
2023-01-28T16:42:59.364Z,24.7
2023-01-28T16:45:31.946Z,21
2023-01-28T16:46:48.237Z,17.3
2023-01-28T16:48:04.540Z,17.7
2023-01-28T16:49:20.820Z,19.1
2023-01-28T16:50:36.150Z,19.1
2023-01-28T16:51:52.561Z,18.1
2023-01-28T16:53:08.848Z,18.3
2023-01-28T16:54:25.151Z,20.5
2023-01-28T16:55:41.465Z,19.3
2023-01-28T16:56:57.737Z,15.2
2023-01-28T16:58:14.024Z,13
2023-01-28T16:59:30.318Z,12.8
2023-01-28T17:00:46.617Z,12.4
2023-01-28T17:02:02.908Z,10.4
2023-01-28T17:03:19.210Z,12.3
2023-01-28T17:04:34.542Z,13.6
2023-01-28T17:05:49.848Z,14.3
2023-01-28T17:07:06.138Z,14.4
2023-01-28T17:08:22.429Z,13.4
2023-01-28T17:09:38.733Z,11.3
2023-01-28T17:10:55.012Z,11.8
2023-01-28T17:12:11.304Z,13.7
2023-01-28T17:13:27.000Z,13.8
2023-01-28T17:14:43.909Z,13.8
2023-01-28T17:16:00.199Z,12.2
2023-01-28T17:17:16.504Z,12.1
2023-01-28T17:18:31.805Z,14.1
2023-01-28T17:19:47.114Z,14
2023-01-28T17:21:03.419Z,12
2023-01-28T17:22:19.717Z,12.8
2023-01-28T17:23:36.010Z,13.9
2023-01-28T17:24:52.307Z,14.1
2023-01-28T17:26:08.593Z,15.3
2023-01-28T17:27:24.888Z,15.8
2023-01-28T17:28:40.208Z,16.6
2023-01-28T17:29:56.504Z,15.4
2023-01-28T17:31:12.799Z,15.1
2023-01-28T17:32:29.089Z,15.6
2023-01-28T17:33:45.383Z,16.1
2023-01-28T17:35:01.689Z,16.1
2023-01-28T17:36:17.978Z,16.1
2023-01-28T17:38:50.567Z,16.8
2023-01-28T17:40:06.859Z,16.8
2023-01-28T17:41:23.163Z,26
2023-01-28T17:42:39.461Z,22.9
2023-01-28T17:43:55.736Z,22.9
2023-01-28T17:45:11.062Z,20.9
2023-01-28T17:46:27.353Z,21.9
2023-01-28T17:47:43.649Z,19
2023-01-28T17:48:59.931Z,19.5
2023-01-28T17:50:16.238Z,18.6
2023-01-28T17:51:32.539Z,20.2
2023-01-28T17:52:48.826Z,21.4
2023-01-28T17:54:05.127Z,20.1
2023-01-28T17:55:21.418Z,18.9
2023-01-28T17:56:37.721Z,18
2023-01-28T17:57:53.996Z,16.9
2023-01-28T17:59:10.310Z,14.3
2023-01-28T18:00:26.599Z,13.1
2023-01-28T18:01:41.912Z,10.9
2023-01-28T18:02:58.196Z,9.2
2023-01-28T18:04:14.491Z,11.9
2023-01-28T18:05:30.796Z,8.3
2023-01-28T18:06:47.091Z,10.2
2023-01-28T18:08:03.383Z,11.7
2023-01-28T18:09:19.677Z,13.3
2023-01-28T18:10:35.964Z,13.6
2023-01-28T18:11:52.273Z,13.7
2023-01-28T18:13:08.562Z,16.6
2023-01-28T18:14:24.863Z,15.7
2023-01-28T18:15:41.141Z,12.4
2023-01-28T18:16:57.454Z,13
2023-01-28T18:19:29.060Z,16
2023-01-28T18:20:45.339Z,15.2
2023-01-28T18:22:01.644Z,14.7
2023-01-28T18:23:17.941Z,15.5
2023-01-28T18:24:34.228Z,16
2023-01-28T18:25:50.534Z,14.6
2023-01-28T18:27:06.813Z,14.1
2023-01-28T18:28:23.105Z,15.9
2023-01-28T18:29:39.415Z,15.7
2023-01-28T18:30:55.705Z,15.7
2023-01-28T18:32:11.997Z,14.4
2023-01-28T18:33:28.302Z,15.3
2023-01-28T18:34:43.608Z,14.6
2023-01-28T18:35:59.902Z,14.3
2023-01-28T18:37:16.201Z,12.1
2023-01-28T18:38:32.495Z,12
2023-01-28T18:39:48.785Z,11
2023-01-28T18:41:05.077Z,10.2
2023-01-28T18:42:21.385Z,11.2
2023-01-28T18:43:37.665Z,10.4